sensor_id;sensor_type;location;lat;lon;timestamp;P1;durP1;ratioP1;P2;durP2;ratioP2
46835;SDS011;32573;51.290;6.926;2023-08-21T00:01:41;2.85;;;0.95;;
46835;SDS011;32573;51.290;6.926;2023-08-21T00:04:33;2.30;;;0.85;;
46835;SDS011;32573;51.290;6.926;2023-08-21T00:07:03;2.28;;;0.90;;
46835;SDS011;32573;51.290;6.926;2023-08-21T00:09:33;2.65;;;1.00;;
46835;SDS011;32573;51.290;6.926;2023-08-21T00:12:07;2.63;;;1.00;;
46835;SDS011;32573;51.290;6.926;2023-08-21T00:14:40;1.70;;;0.90;;
46835;SDS011;32573;51.290;6.926;2023-08-21T00:17:20;1.85;;;0.85;;
46835;SDS011;32573;51.290;6.926;2023-08-21T00:19:51;2.75;;;1.10;;
46835;SDS011;32573;51.290;6.926;2023-08-21T00:22:29;4.47;;;1.08;;
46835;SDS011;32573;51.290;6.926;2023-08-21T00:24:59;2.58;;;1.10;;
46835;SDS011;32573;51.290;6.926;2023-08-21T00:27:37;1.80;;;1.00;;
46835;SDS011;32573;51.290;6.926;2023-08-21T00:30:10;3.35;;;1.00;;
46835;SDS011;32573;51.290;6.926;2023-08-21T00:32:42;3.00;;;1.02;;
46835;SDS011;32573;51.290;6.926;2023-08-21T00:35:13;2.78;;;1.00;;
46835;SDS011;32573;51.290;6.926;2023-08-21T00:37:44;3.40;;;1.27;;
46835;SDS011;32573;51.290;6.926;2023-08-21T00:40:14;2.38;;;1.10;;
46835;SDS011;32573;51.290;6.926;2023-08-21T00:42:43;3.38;;;1.08;;
46835;SDS011;32573;51.290;6.926;2023-08-21T00:48:06;2.03;;;1.03;;
46835;SDS011;32573;51.290;6.926;2023-08-21T00:50:39;2.38;;;1.13;;
46835;SDS011;32573;51.290;6.926;2023-08-21T00:53:10;2.50;;;1.00;;
46835;SDS011;32573;51.290;6.926;2023-08-21T00:55:40;2.72;;;1.20;;
46835;SDS011;32573;51.290;6.926;2023-08-21T00:58:09;3.45;;;1.27;;
46835;SDS011;32573;51.290;6.926;2023-08-21T01:00:40;2.60;;;1.05;;
46835;SDS011;32573;51.290;6.926;2023-08-21T01:03:10;3.25;;;1.40;;
46835;SDS011;32573;51.290;6.926;2023-08-21T01:05:43;3.15;;;1.20;;
46835;SDS011;32573;51.290;6.926;2023-08-21T01:08:18;3.05;;;1.30;;
46835;SDS011;32573;51.290;6.926;2023-08-21T01:10:52;2.88;;;1.15;;
46835;SDS011;32573;51.290;6.926;2023-08-21T01:13:28;2.67;;;1.23;;
46835;SDS011;32573;51.290;6.926;2023-08-21T01:16:09;3.22;;;1.20;;
46835;SDS011;32573;51.290;6.926;2023-08-21T01:18:43;4.78;;;1.30;;
46835;SDS011;32573;51.290;6.926;2023-08-21T01:21:18;1.73;;;0.90;;
46835;SDS011;32573;51.290;6.926;2023-08-21T01:23:53;3.45;;;1.20;;
46835;SDS011;32573;51.290;6.926;2023-08-21T01:26:21;2.75;;;1.20;;
46835;SDS011;32573;51.290;6.926;2023-08-21T01:28:52;2.33;;;1.00;;
46835;SDS011;32573;51.290;6.926;2023-08-21T01:31:23;2.60;;;1.30;;
46835;SDS011;32573;51.290;6.926;2023-08-21T01:36:27;2.85;;;1.15;;
46835;SDS011;32573;51.290;6.926;2023-08-21T01:38:58;2.72;;;1.27;;
46835;SDS011;32573;51.290;6.926;2023-08-21T01:41:38;2.92;;;1.20;;
46835;SDS011;32573;51.290;6.926;2023-08-21T01:44:07;2.70;;;1.20;;
46835;SDS011;32573;51.290;6.926;2023-08-21T01:46:46;3.85;;;1.20;;
46835;SDS011;32573;51.290;6.926;2023-08-21T01:49:23;3.35;;;1.10;;
46835;SDS011;32573;51.290;6.926;2023-08-21T01:51:54;2.28;;;1.10;;
46835;SDS011;32573;51.290;6.926;2023-08-21T01:54:26;3.50;;;1.38;;
46835;SDS011;32573;51.290;6.926;2023-08-21T01:56:57;3.10;;;1.15;;
46835;SDS011;32573;51.290;6.926;2023-08-21T01:59:26;3.25;;;1.10;;
46835;SDS011;32573;51.290;6.926;2023-08-21T02:01:57;3.03;;;1.23;;
46835;SDS011;32573;51.290;6.926;2023-08-21T02:04:31;3.45;;;1.20;;
46835;SDS011;32573;51.290;6.926;2023-08-21T02:07:00;3.30;;;1.20;;
46835;SDS011;32573;51.290;6.926;2023-08-21T02:09:33;3.20;;;1.20;;
46835;SDS011;32573;51.290;6.926;2023-08-21T02:12:02;2.53;;;1.08;;
46835;SDS011;32573;51.290;6.926;2023-08-21T02:14:31;3.65;;;1.27;;
46835;SDS011;32573;51.290;6.926;2023-08-21T02:17:02;2.65;;;1.23;;
46835;SDS011;32573;51.290;6.926;2023-08-21T02:19:45;2.60;;;1.00;;
46835;SDS011;32573;51.290;6.926;2023-08-21T02:22:15;2.28;;;1.10;;
46835;SDS011;32573;51.290;6.926;2023-08-21T02:24:45;3.08;;;1.20;;
46835;SDS011;32573;51.290;6.926;2023-08-21T02:27:14;3.40;;;1.33;;
46835;SDS011;32573;51.290;6.926;2023-08-21T02:29:44;3.45;;;1.23;;
46835;SDS011;32573;51.290;6.926;2023-08-21T02:32:13;1.95;;;0.95;;
46835;SDS011;32573;51.290;6.926;2023-08-21T02:34:41;2.58;;;1.00;;
46835;SDS011;32573;51.290;6.926;2023-08-21T02:37:11;3.65;;;1.20;;
46835;SDS011;32573;51.290;6.926;2023-08-21T02:39:47;2.45;;;1.23;;
46835;SDS011;32573;51.290;6.926;2023-08-21T02:42:24;2.78;;;1.25;;
46835;SDS011;32573;51.290;6.926;2023-08-21T02:44:53;2.28;;;1.10;;
46835;SDS011;32573;51.290;6.926;2023-08-21T02:47:24;2.80;;;1.00;;
46835;SDS011;32573;51.290;6.926;2023-08-21T02:49:56;3.55;;;1.20;;
46835;SDS011;32573;51.290;6.926;2023-08-21T02:52:28;2.50;;;1.00;;
46835;SDS011;32573;51.290;6.926;2023-08-21T02:54:59;2.88;;;1.10;;
46835;SDS011;32573;51.290;6.926;2023-08-21T02:57:28;3.40;;;1.20;;
46835;SDS011;32573;51.290;6.926;2023-08-21T02:59:59;2.15;;;1.00;;
46835;SDS011;32573;51.290;6.926;2023-08-21T03:02:28;2.42;;;1.00;;
46835;SDS011;32573;51.290;6.926;2023-08-21T03:05:00;2.38;;;1.00;;
46835;SDS011;32573;51.290;6.926;2023-08-21T03:07:33;2.73;;;1.10;;
46835;SDS011;32573;51.290;6.926;2023-08-21T03:10:10;2.50;;;1.08;;
46835;SDS011;32573;51.290;6.926;2023-08-21T03:12:42;2.85;;;1.20;;
46835;SDS011;32573;51.290;6.926;2023-08-21T03:15:17;1.95;;;0.95;;
46835;SDS011;32573;51.290;6.926;2023-08-21T03:17:51;2.38;;;1.10;;
46835;SDS011;32573;51.290;6.926;2023-08-21T03:20:30;2.28;;;1.05;;
46835;SDS011;32573;51.290;6.926;2023-08-21T03:22:59;2.00;;;1.00;;
46835;SDS011;32573;51.290;6.926;2023-08-21T03:25:30;3.63;;;1.55;;
46835;SDS011;32573;51.290;6.926;2023-08-21T03:28:06;3.17;;;1.10;;
46835;SDS011;32573;51.290;6.926;2023-08-21T03:30:36;2.67;;;1.00;;
46835;SDS011;32573;51.290;6.926;2023-08-21T03:33:14;2.28;;;1.00;;
46835;SDS011;32573;51.290;6.926;2023-08-21T03:35:53;2.75;;;1.20;;
46835;SDS011;32573;51.290;6.926;2023-08-21T03:38:24;2.10;;;1.10;;
46835;SDS011;32573;51.290;6.926;2023-08-21T03:40:58;2.20;;;1.15;;
46835;SDS011;32573;51.290;6.926;2023-08-21T03:43:55;2.42;;;1.08;;
46835;SDS011;32573;51.290;6.926;2023-08-21T03:46:25;2.35;;;1.05;;
46835;SDS011;32573;51.290;6.926;2023-08-21T03:51:46;2.88;;;1.10;;
46835;SDS011;32573;51.290;6.926;2023-08-21T03:54:15;3.38;;;1.05;;
46835;SDS011;32573;51.290;6.926;2023-08-21T03:56:51;2.10;;;0.93;;
46835;SDS011;32573;51.290;6.926;2023-08-21T03:59:22;1.83;;;0.90;;
46835;SDS011;32573;51.290;6.926;2023-08-21T04:01:55;2.85;;;1.10;;
46835;SDS011;32573;51.290;6.926;2023-08-21T04:04:30;2.20;;;1.00;;
46835;SDS011;32573;51.290;6.926;2023-08-21T04:07:03;1.95;;;0.98;;
46835;SDS011;32573;51.290;6.926;2023-08-21T04:09:33;2.83;;;1.02;;
46835;SDS011;32573;51.290;6.926;2023-08-21T04:12:05;2.38;;;1.00;;
46835;SDS011;32573;51.290;6.926;2023-08-21T04:14:35;3.78;;;1.10;;
46835;SDS011;32573;51.290;6.926;2023-08-21T04:17:06;4.00;;;1.20;;
46835;SDS011;32573;51.290;6.926;2023-08-21T04:19:37;2.30;;;1.10;;
46835;SDS011;32573;51.290;6.926;2023-08-21T04:22:08;2.53;;;1.08;;
46835;SDS011;32573;51.290;6.926;2023-08-21T04:24:38;3.05;;;1.10;;
46835;SDS011;32573;51.290;6.926;2023-08-21T04:27:09;3.72;;;1.25;;
46835;SDS011;32573;51.290;6.926;2023-08-21T04:29:39;2.30;;;1.10;;
46835;SDS011;32573;51.290;6.926;2023-08-21T04:32:08;2.67;;;1.10;;
46835;SDS011;32573;51.290;6.926;2023-08-21T04:34:41;2.80;;;1.10;;
46835;SDS011;32573;51.290;6.926;2023-08-21T04:37:14;2.60;;;1.10;;
46835;SDS011;32573;51.290;6.926;2023-08-21T04:39:47;3.08;;;1.20;;
46835;SDS011;32573;51.290;6.926;2023-08-21T04:42:21;3.05;;;1.38;;
46835;SDS011;32573;51.290;6.926;2023-08-21T04:44:54;2.83;;;1.10;;
46835;SDS011;32573;51.290;6.926;2023-08-21T04:47:28;3.30;;;1.40;;
46835;SDS011;32573;51.290;6.926;2023-08-21T04:49:59;2.13;;;1.10;;
46835;SDS011;32573;51.290;6.926;2023-08-21T04:52:30;3.33;;;1.10;;
46835;SDS011;32573;51.290;6.926;2023-08-21T04:55:01;2.83;;;1.10;;
46835;SDS011;32573;51.290;6.926;2023-08-21T04:57:36;4.15;;;1.10;;
46835;SDS011;32573;51.290;6.926;2023-08-21T05:00:09;3.25;;;1.20;;
46835;SDS011;32573;51.290;6.926;2023-08-21T05:02:41;2.70;;;1.08;;
46835;SDS011;32573;51.290;6.926;2023-08-21T05:05:11;3.78;;;1.40;;
46835;SDS011;32573;51.290;6.926;2023-08-21T05:07:41;2.35;;;1.20;;
46835;SDS011;32573;51.290;6.926;2023-08-21T05:10:12;2.60;;;1.20;;
46835;SDS011;32573;51.290;6.926;2023-08-21T05:12:45;3.25;;;1.20;;
46835;SDS011;32573;51.290;6.926;2023-08-21T05:15:20;2.35;;;1.02;;
46835;SDS011;32573;51.290;6.926;2023-08-21T05:17:50;3.00;;;1.13;;
46835;SDS011;32573;51.290;6.926;2023-08-21T05:20:25;2.97;;;1.13;;
46835;SDS011;32573;51.290;6.926;2023-08-21T05:22:58;2.53;;;1.10;;
46835;SDS011;32573;51.290;6.926;2023-08-21T05:25:31;2.35;;;1.10;;
46835;SDS011;32573;51.290;6.926;2023-08-21T05:28:06;2.70;;;1.08;;
46835;SDS011;32573;51.290;6.926;2023-08-21T05:30:36;2.10;;;0.93;;
46835;SDS011;32573;51.290;6.926;2023-08-21T05:33:07;4.10;;;1.10;;
46835;SDS011;32573;51.290;6.926;2023-08-21T05:35:39;3.97;;;1.20;;
46835;SDS011;32573;51.290;6.926;2023-08-21T05:38:09;2.17;;;0.93;;
46835;SDS011;32573;51.290;6.926;2023-08-21T05:40:40;2.15;;;0.90;;
46835;SDS011;32573;51.290;6.926;2023-08-21T05:43:13;2.40;;;1.02;;
46835;SDS011;32573;51.290;6.926;2023-08-21T05:45:44;2.65;;;1.08;;
46835;SDS011;32573;51.290;6.926;2023-08-21T05:48:15;2.45;;;1.02;;
46835;SDS011;32573;51.290;6.926;2023-08-21T05:50:50;2.38;;;1.17;;
46835;SDS011;32573;51.290;6.926;2023-08-21T05:53:20;2.33;;;1.08;;
46835;SDS011;32573;51.290;6.926;2023-08-21T05:55:55;1.83;;;1.00;;
46835;SDS011;32573;51.290;6.926;2023-08-21T05:58:32;2.72;;;1.30;;
46835;SDS011;32573;51.290;6.926;2023-08-21T06:01:05;2.47;;;1.08;;
46835;SDS011;32573;51.290;6.926;2023-08-21T06:03:35;2.83;;;1.00;;
46835;SDS011;32573;51.290;6.926;2023-08-21T06:06:29;2.33;;;1.00;;
46835;SDS011;32573;51.290;6.926;2023-08-21T06:09:01;2.45;;;1.10;;
46835;SDS011;32573;51.290;6.926;2023-08-21T06:11:33;2.30;;;1.00;;
46835;SDS011;32573;51.290;6.926;2023-08-21T06:14:05;4.00;;;1.33;;
46835;SDS011;32573;51.290;6.926;2023-08-21T06:16:39;2.28;;;1.10;;
46835;SDS011;32573;51.290;6.926;2023-08-21T06:21:46;2.10;;;0.90;;
46835;SDS011;32573;51.290;6.926;2023-08-21T06:24:20;1.85;;;0.95;;
46835;SDS011;32573;51.290;6.926;2023-08-21T06:26:55;2.85;;;1.05;;
46835;SDS011;32573;51.290;6.926;2023-08-21T06:29:27;2.30;;;1.00;;
46835;SDS011;32573;51.290;6.926;2023-08-21T06:31:58;2.65;;;1.10;;
46835;SDS011;32573;51.290;6.926;2023-08-21T06:34:41;2.70;;;1.00;;
46835;SDS011;32573;51.290;6.926;2023-08-21T06:37:11;2.92;;;1.10;;
46835;SDS011;32573;51.290;6.926;2023-08-21T06:39:41;2.20;;;1.10;;
46835;SDS011;32573;51.290;6.926;2023-08-21T06:42:14;2.47;;;1.05;;
46835;SDS011;32573;51.290;6.926;2023-08-21T06:44:51;2.65;;;1.08;;
46835;SDS011;32573;51.290;6.926;2023-08-21T06:47:25;4.22;;;1.30;;
46835;SDS011;32573;51.290;6.926;2023-08-21T06:49:57;3.03;;;1.40;;
46835;SDS011;32573;51.290;6.926;2023-08-21T06:52:30;2.17;;;1.10;;
46835;SDS011;32573;51.290;6.926;2023-08-21T06:55:02;2.80;;;1.10;;
46835;SDS011;32573;51.290;6.926;2023-08-21T06:57:35;2.42;;;1.10;;
46835;SDS011;32573;51.290;6.926;2023-08-21T07:00:10;3.60;;;1.23;;
46835;SDS011;32573;51.290;6.926;2023-08-21T07:02:41;3.75;;;1.20;;
46835;SDS011;32573;51.290;6.926;2023-08-21T07:05:13;2.70;;;1.20;;
46835;SDS011;32573;51.290;6.926;2023-08-21T07:07:44;3.28;;;1.60;;
46835;SDS011;32573;51.290;6.926;2023-08-21T07:10:14;3.47;;;1.20;;
46835;SDS011;32573;51.290;6.926;2023-08-21T07:12:53;2.70;;;1.25;;
46835;SDS011;32573;51.290;6.926;2023-08-21T07:15:28;3.58;;;1.10;;
46835;SDS011;32573;51.290;6.926;2023-08-21T07:17:58;3.03;;;1.30;;
46835;SDS011;32573;51.290;6.926;2023-08-21T07:20:28;3.20;;;1.20;;
46835;SDS011;32573;51.290;6.926;2023-08-21T07:23:00;3.60;;;1.10;;
46835;SDS011;32573;51.290;6.926;2023-08-21T07:25:30;2.67;;;1.17;;
46835;SDS011;32573;51.290;6.926;2023-08-21T07:28:05;3.10;;;1.27;;
46835;SDS011;32573;51.290;6.926;2023-08-21T07:30:38;2.80;;;1.00;;
46835;SDS011;32573;51.290;6.926;2023-08-21T07:33:19;2.97;;;1.20;;
46835;SDS011;32573;51.290;6.926;2023-08-21T07:35:56;3.92;;;1.10;;
46835;SDS011;32573;51.290;6.926;2023-08-21T07:38:26;3.45;;;1.30;;
46835;SDS011;32573;51.290;6.926;2023-08-21T07:41:04;4.10;;;1.40;;
46835;SDS011;32573;51.290;6.926;2023-08-21T07:43:43;3.05;;;1.30;;
46835;SDS011;32573;51.290;6.926;2023-08-21T07:46:15;4.35;;;1.42;;
46835;SDS011;32573;51.290;6.926;2023-08-21T07:48:46;2.67;;;1.27;;
46835;SDS011;32573;51.290;6.926;2023-08-21T07:51:15;3.45;;;1.30;;
46835;SDS011;32573;51.290;6.926;2023-08-21T07:53:47;3.97;;;1.20;;
46835;SDS011;32573;51.290;6.926;2023-08-21T07:56:17;3.88;;;1.42;;
46835;SDS011;32573;51.290;6.926;2023-08-21T07:58:48;3.08;;;1.60;;
46835;SDS011;32573;51.290;6.926;2023-08-21T08:01:20;4.53;;;1.80;;
46835;SDS011;32573;51.290;6.926;2023-08-21T08:03:50;4.13;;;1.50;;
46835;SDS011;32573;51.290;6.926;2023-08-21T08:06:23;3.60;;;1.63;;
46835;SDS011;32573;51.290;6.926;2023-08-21T08:08:52;2.88;;;1.38;;
46835;SDS011;32573;51.290;6.926;2023-08-21T08:11:24;4.78;;;1.55;;
46835;SDS011;32573;51.290;6.926;2023-08-21T08:13:56;3.85;;;1.50;;
46835;SDS011;32573;51.290;6.926;2023-08-21T08:16:29;3.80;;;1.48;;
46835;SDS011;32573;51.290;6.926;2023-08-21T08:19:00;3.80;;;1.55;;
46835;SDS011;32573;51.290;6.926;2023-08-21T08:21:29;4.40;;;1.48;;
46835;SDS011;32573;51.290;6.926;2023-08-21T08:24:02;3.67;;;1.52;;
46835;SDS011;32573;51.290;6.926;2023-08-21T08:26:35;4.28;;;1.40;;
46835;SDS011;32573;51.290;6.926;2023-08-21T08:29:05;3.20;;;1.33;;
46835;SDS011;32573;51.290;6.926;2023-08-21T08:31:40;3.45;;;1.60;;
46835;SDS011;32573;51.290;6.926;2023-08-21T08:34:10;2.85;;;1.33;;
46835;SDS011;32573;51.290;6.926;2023-08-21T08:36:42;3.97;;;1.60;;
46835;SDS011;32573;51.290;6.926;2023-08-21T08:39:18;3.45;;;1.48;;
46835;SDS011;32573;51.290;6.926;2023-08-21T08:41:53;2.90;;;1.40;;
46835;SDS011;32573;51.290;6.926;2023-08-21T08:44:31;4.95;;;1.80;;
46835;SDS011;32573;51.290;6.926;2023-08-21T08:47:06;3.13;;;1.50;;
46835;SDS011;32573;51.290;6.926;2023-08-21T08:49:36;4.50;;;1.60;;
46835;SDS011;32573;51.290;6.926;2023-08-21T08:52:07;3.55;;;1.70;;
46835;SDS011;32573;51.290;6.926;2023-08-21T08:54:41;5.82;;;1.85;;
46835;SDS011;32573;51.290;6.926;2023-08-21T08:57:11;4.43;;;2.10;;
46835;SDS011;32573;51.290;6.926;2023-08-21T08:59:42;3.53;;;1.70;;
46835;SDS011;32573;51.290;6.926;2023-08-21T09:02:16;3.88;;;1.70;;
46835;SDS011;32573;51.290;6.926;2023-08-21T09:04:48;4.95;;;1.80;;
46835;SDS011;32573;51.290;6.926;2023-08-21T09:07:24;6.70;;;2.35;;
46835;SDS011;32573;51.290;6.926;2023-08-21T09:09:55;4.68;;;1.90;;
46835;SDS011;32573;51.290;6.926;2023-08-21T09:12:26;4.20;;;1.80;;
46835;SDS011;32573;51.290;6.926;2023-08-21T09:15:01;5.10;;;1.95;;
46835;SDS011;32573;51.290;6.926;2023-08-21T09:17:40;4.38;;;1.90;;
46835;SDS011;32573;51.290;6.926;2023-08-21T09:20:10;4.10;;;2.10;;
46835;SDS011;32573;51.290;6.926;2023-08-21T09:22:52;3.85;;;1.90;;
46835;SDS011;32573;51.290;6.926;2023-08-21T09:25:25;5.72;;;2.38;;
46835;SDS011;32573;51.290;6.926;2023-08-21T09:27:57;4.18;;;1.85;;
46835;SDS011;32573;51.290;6.926;2023-08-21T09:30:27;4.55;;;1.70;;
46835;SDS011;32573;51.290;6.926;2023-08-21T09:32:59;4.15;;;1.95;;
46835;SDS011;32573;51.290;6.926;2023-08-21T09:35:33;4.60;;;2.10;;
46835;SDS011;32573;51.290;6.926;2023-08-21T09:38:03;4.43;;;1.70;;
46835;SDS011;32573;51.290;6.926;2023-08-21T09:40:39;4.65;;;2.03;;
46835;SDS011;32573;51.290;6.926;2023-08-21T09:43:09;4.18;;;1.90;;
46835;SDS011;32573;51.290;6.926;2023-08-21T09:45:40;3.60;;;1.63;;
46835;SDS011;32573;51.290;6.926;2023-08-21T09:48:18;4.00;;;1.70;;
46835;SDS011;32573;51.290;6.926;2023-08-21T09:50:57;6.00;;;2.10;;
46835;SDS011;32573;51.290;6.926;2023-08-21T09:53:32;3.42;;;1.80;;
46835;SDS011;32573;51.290;6.926;2023-08-21T09:56:05;5.03;;;2.35;;
46835;SDS011;32573;51.290;6.926;2023-08-21T09:58:35;7.25;;;1.98;;
46835;SDS011;32573;51.290;6.926;2023-08-21T10:01:06;5.43;;;2.38;;
46835;SDS011;32573;51.290;6.926;2023-08-21T10:03:41;5.60;;;2.20;;
46835;SDS011;32573;51.290;6.926;2023-08-21T10:06:29;5.22;;;2.10;;
46835;SDS011;32573;51.290;6.926;2023-08-21T10:08:59;4.05;;;1.83;;
46835;SDS011;32573;51.290;6.926;2023-08-21T10:11:31;4.22;;;1.90;;
46835;SDS011;32573;51.290;6.926;2023-08-21T10:14:03;5.90;;;2.58;;
46835;SDS011;32573;51.290;6.926;2023-08-21T10:16:41;5.18;;;2.33;;
46835;SDS011;32573;51.290;6.926;2023-08-21T10:19:27;5.03;;;1.90;;
46835;SDS011;32573;51.290;6.926;2023-08-21T10:22:05;3.70;;;1.88;;
46835;SDS011;32573;51.290;6.926;2023-08-21T10:24:37;3.42;;;1.77;;
46835;SDS011;32573;51.290;6.926;2023-08-21T10:27:06;4.65;;;2.00;;
46835;SDS011;32573;51.290;6.926;2023-08-21T10:29:39;3.85;;;1.77;;
46835;SDS011;32573;51.290;6.926;2023-08-21T10:32:11;5.07;;;2.08;;
46835;SDS011;32573;51.290;6.926;2023-08-21T10:34:56;4.30;;;1.95;;
46835;SDS011;32573;51.290;6.926;2023-08-21T10:37:30;5.30;;;2.10;;
46835;SDS011;32573;51.290;6.926;2023-08-21T10:40:03;5.83;;;2.10;;
46835;SDS011;32573;51.290;6.926;2023-08-21T10:42:41;4.75;;;2.15;;
46835;SDS011;32573;51.290;6.926;2023-08-21T10:45:19;5.75;;;2.30;;
46835;SDS011;32573;51.290;6.926;2023-08-21T10:47:59;4.40;;;2.10;;
46835;SDS011;32573;51.290;6.926;2023-08-21T10:50:40;5.00;;;2.30;;
46835;SDS011;32573;51.290;6.926;2023-08-21T10:53:09;5.45;;;2.55;;
46835;SDS011;32573;51.290;6.926;2023-08-21T10:55:42;4.30;;;2.10;;
46835;SDS011;32573;51.290;6.926;2023-08-21T10:58:23;4.68;;;2.10;;
46835;SDS011;32573;51.290;6.926;2023-08-21T11:00:59;3.92;;;2.10;;
46835;SDS011;32573;51.290;6.926;2023-08-21T11:03:32;3.97;;;2.10;;
46835;SDS011;32573;51.290;6.926;2023-08-21T11:06:04;6.75;;;2.40;;
46835;SDS011;32573;51.290;6.926;2023-08-21T11:08:36;3.50;;;1.95;;
46835;SDS011;32573;51.290;6.926;2023-08-21T11:11:12;3.95;;;1.80;;
46835;SDS011;32573;51.290;6.926;2023-08-21T11:13:42;4.88;;;2.10;;
46835;SDS011;32573;51.290;6.926;2023-08-21T11:16:24;5.60;;;2.70;;
46835;SDS011;32573;51.290;6.926;2023-08-21T11:19:02;4.78;;;1.98;;
46835;SDS011;32573;51.290;6.926;2023-08-21T11:21:37;4.60;;;1.88;;
46835;SDS011;32573;51.290;6.926;2023-08-21T11:24:09;4.38;;;1.95;;
46835;SDS011;32573;51.290;6.926;2023-08-21T11:26:39;4.10;;;2.00;;
46835;SDS011;32573;51.290;6.926;2023-08-21T11:29:10;4.35;;;1.98;;
46835;SDS011;32573;51.290;6.926;2023-08-21T11:34:18;4.95;;;2.00;;
46835;SDS011;32573;51.290;6.926;2023-08-21T11:36:51;4.93;;;2.22;;
46835;SDS011;32573;51.290;6.926;2023-08-21T11:39:20;3.65;;;1.70;;
46835;SDS011;32573;51.290;6.926;2023-08-21T11:41:55;4.13;;;1.92;;
46835;SDS011;32573;51.290;6.926;2023-08-21T11:46:53;4.85;;;2.00;;
46835;SDS011;32573;51.290;6.926;2023-08-21T11:49:21;3.70;;;1.73;;
46835;SDS011;32573;51.290;6.926;2023-08-21T11:51:53;4.32;;;2.15;;
46835;SDS011;32573;51.290;6.926;2023-08-21T11:54:21;5.47;;;2.10;;
46835;SDS011;32573;51.290;6.926;2023-08-21T11:56:50;5.15;;;2.08;;
46835;SDS011;32573;51.290;6.926;2023-08-21T11:59:21;4.72;;;2.20;;
46835;SDS011;32573;51.290;6.926;2023-08-21T12:01:52;5.50;;;2.25;;
46835;SDS011;32573;51.290;6.926;2023-08-21T12:04:20;4.22;;;1.90;;
46835;SDS011;32573;51.290;6.926;2023-08-21T12:06:49;4.53;;;1.80;;
46835;SDS011;32573;51.290;6.926;2023-08-21T12:09:19;4.20;;;1.80;;
46835;SDS011;32573;51.290;6.926;2023-08-21T12:11:48;3.80;;;1.70;;
46835;SDS011;32573;51.290;6.926;2023-08-21T12:14:16;5.32;;;1.80;;
46835;SDS011;32573;51.290;6.926;2023-08-21T12:16:45;5.05;;;2.10;;
46835;SDS011;32573;51.290;6.926;2023-08-21T12:19:13;3.22;;;1.70;;
46835;SDS011;32573;51.290;6.926;2023-08-21T12:21:42;4.22;;;1.98;;
46835;SDS011;32573;51.290;6.926;2023-08-21T12:24:10;3.72;;;1.80;;
46835;SDS011;32573;51.290;6.926;2023-08-21T12:26:40;6.10;;;2.22;;
46835;SDS011;32573;51.290;6.926;2023-08-21T12:29:17;3.38;;;1.60;;
46835;SDS011;32573;51.290;6.926;2023-08-21T12:31:45;4.10;;;1.75;;
46835;SDS011;32573;51.290;6.926;2023-08-21T12:34:14;5.15;;;1.65;;
46835;SDS011;32573;51.290;6.926;2023-08-21T12:36:42;4.20;;;1.83;;
46835;SDS011;32573;51.290;6.926;2023-08-21T12:39:11;5.03;;;2.03;;
46835;SDS011;32573;51.290;6.926;2023-08-21T12:41:42;4.45;;;1.77;;
46835;SDS011;32573;51.290;6.926;2023-08-21T12:44:10;5.18;;;2.35;;
46835;SDS011;32573;51.290;6.926;2023-08-21T12:46:41;3.33;;;1.70;;
46835;SDS011;32573;51.290;6.926;2023-08-21T12:49:10;3.95;;;1.98;;
46835;SDS011;32573;51.290;6.926;2023-08-21T12:51:39;4.20;;;1.80;;
46835;SDS011;32573;51.290;6.926;2023-08-21T12:54:07;3.28;;;1.80;;
46835;SDS011;32573;51.290;6.926;2023-08-21T12:56:36;4.40;;;2.00;;
46835;SDS011;32573;51.290;6.926;2023-08-21T12:59:07;4.88;;;1.80;;
46835;SDS011;32573;51.290;6.926;2023-08-21T13:01:36;3.10;;;1.65;;
46835;SDS011;32573;51.290;6.926;2023-08-21T13:04:06;3.63;;;1.83;;
46835;SDS011;32573;51.290;6.926;2023-08-21T13:06:34;4.15;;;1.95;;
46835;SDS011;32573;51.290;6.926;2023-08-21T13:09:03;4.82;;;2.10;;
46835;SDS011;32573;51.290;6.926;2023-08-21T13:11:33;4.00;;;2.00;;
46835;SDS011;32573;51.290;6.926;2023-08-21T13:14:02;3.97;;;1.60;;
46835;SDS011;32573;51.290;6.926;2023-08-21T13:16:31;4.47;;;1.80;;
46835;SDS011;32573;51.290;6.926;2023-08-21T13:19:00;3.92;;;2.00;;
46835;SDS011;32573;51.290;6.926;2023-08-21T13:21:28;4.22;;;1.75;;
46835;SDS011;32573;51.290;6.926;2023-08-21T13:23:57;3.97;;;1.90;;
46835;SDS011;32573;51.290;6.926;2023-08-21T13:26:29;3.55;;;1.70;;
46835;SDS011;32573;51.290;6.926;2023-08-21T13:28:58;4.13;;;1.70;;
46835;SDS011;32573;51.290;6.926;2023-08-21T13:31:27;2.95;;;1.60;;
46835;SDS011;32573;51.290;6.926;2023-08-21T13:33:57;3.67;;;1.65;;
46835;SDS011;32573;51.290;6.926;2023-08-21T13:36:28;6.38;;;1.92;;
46835;SDS011;32573;51.290;6.926;2023-08-21T13:38:57;5.75;;;1.85;;
46835;SDS011;32573;51.290;6.926;2023-08-21T13:41:25;3.97;;;1.70;;
46835;SDS011;32573;51.290;6.926;2023-08-21T13:43:53;4.78;;;1.60;;
46835;SDS011;32573;51.290;6.926;2023-08-21T13:46:26;5.07;;;1.52;;
46835;SDS011;32573;51.290;6.926;2023-08-21T13:48:54;4.68;;;1.70;;
46835;SDS011;32573;51.290;6.926;2023-08-21T13:51:24;3.92;;;1.50;;
46835;SDS011;32573;51.290;6.926;2023-08-21T13:53:52;3.60;;;1.45;;
46835;SDS011;32573;51.290;6.926;2023-08-21T13:56:20;4.47;;;1.60;;
46835;SDS011;32573;51.290;6.926;2023-08-21T13:58:49;3.28;;;1.45;;
46835;SDS011;32573;51.290;6.926;2023-08-21T14:01:17;4.20;;;1.45;;
46835;SDS011;32573;51.290;6.926;2023-08-21T14:03:46;4.50;;;1.38;;
46835;SDS011;32573;51.290;6.926;2023-08-21T14:06:14;4.05;;;1.40;;
46835;SDS011;32573;51.290;6.926;2023-08-21T14:08:44;3.83;;;1.40;;
46835;SDS011;32573;51.290;6.926;2023-08-21T14:11:12;2.95;;;1.38;;
46835;SDS011;32573;51.290;6.926;2023-08-21T14:13:41;3.20;;;1.38;;
46835;SDS011;32573;51.290;6.926;2023-08-21T14:16:09;3.97;;;1.35;;
46835;SDS011;32573;51.290;6.926;2023-08-21T14:18:38;3.95;;;1.50;;
46835;SDS011;32573;51.290;6.926;2023-08-21T14:21:06;4.57;;;1.50;;
46835;SDS011;32573;51.290;6.926;2023-08-21T14:23:38;3.05;;;1.38;;
46835;SDS011;32573;51.290;6.926;2023-08-21T14:26:07;4.05;;;1.60;;
46835;SDS011;32573;51.290;6.926;2023-08-21T14:28:36;4.05;;;1.40;;
46835;SDS011;32573;51.290;6.926;2023-08-21T14:31:04;3.28;;;1.20;;
46835;SDS011;32573;51.290;6.926;2023-08-21T14:33:33;3.05;;;1.30;;
46835;SDS011;32573;51.290;6.926;2023-08-21T14:36:01;3.50;;;1.33;;
46835;SDS011;32573;51.290;6.926;2023-08-21T14:38:29;3.63;;;1.40;;
46835;SDS011;32573;51.290;6.926;2023-08-21T14:40:58;3.35;;;1.25;;
46835;SDS011;32573;51.290;6.926;2023-08-21T14:43:28;3.20;;;1.30;;
46835;SDS011;32573;51.290;6.926;2023-08-21T14:45:59;4.32;;;1.40;;
46835;SDS011;32573;51.290;6.926;2023-08-21T14:48:27;3.35;;;1.40;;
46835;SDS011;32573;51.290;6.926;2023-08-21T14:50:55;3.08;;;1.30;;
46835;SDS011;32573;51.290;6.926;2023-08-21T14:53:24;3.55;;;1.55;;
46835;SDS011;32573;51.290;6.926;2023-08-21T14:55:53;3.40;;;1.50;;
46835;SDS011;32573;51.290;6.926;2023-08-21T14:58:22;3.28;;;1.25;;
46835;SDS011;32573;51.290;6.926;2023-08-21T15:00:54;2.97;;;1.50;;
46835;SDS011;32573;51.290;6.926;2023-08-21T15:03:23;4.05;;;1.42;;
46835;SDS011;32573;51.290;6.926;2023-08-21T15:05:51;2.65;;;1.30;;
46835;SDS011;32573;51.290;6.926;2023-08-21T15:08:20;3.47;;;1.23;;
46835;SDS011;32573;51.290;6.926;2023-08-21T15:10:48;2.58;;;1.30;;
46835;SDS011;32573;51.290;6.926;2023-08-21T15:13:17;3.33;;;1.33;;
46835;SDS011;32573;51.290;6.926;2023-08-21T15:15:45;4.30;;;1.40;;
46835;SDS011;32573;51.290;6.926;2023-08-21T15:18:15;3.28;;;1.33;;
46835;SDS011;32573;51.290;6.926;2023-08-21T15:20:43;2.90;;;1.30;;
46835;SDS011;32573;51.290;6.926;2023-08-21T15:23:12;5.28;;;1.50;;
46835;SDS011;32573;51.290;6.926;2023-08-21T15:25:41;4.80;;;1.67;;
46835;SDS011;32573;51.290;6.926;2023-08-21T15:28:09;3.60;;;1.50;;
46835;SDS011;32573;51.290;6.926;2023-08-21T15:30:37;7.03;;;3.70;;
46835;SDS011;32573;51.290;6.926;2023-08-21T15:33:06;3.70;;;2.10;;